This is the latest recevied weather packets stored in our database for station/object KK4KTV-13. If no packets are shown the sender has not sent any weather packets the latest 1 day(s).
| Time | Temp. | Humidity | Pressure | Rain* | Wind** | Luminosity | Snow |
|---|---|---|---|---|---|---|---|
| 1778088141 | 11.67° C | 98% | 1012 hPa | 0 mm | - | 196 W/m² | - |
| 1778087536 | 11.67° C | 98% | 1012 hPa | 0 mm | - | 196 W/m² | - |
| 1778086930 | 11.67° C | 98% | 1012.2 hPa | 0 mm | - | 196 W/m² | - |
| 1778086022 | 11.67° C | 98% | 1011.8 hPa | 0 mm | - | 196 W/m² | - |
| 1778084807 | 11.11° C | 99% | 1011.8 hPa | 0 mm | - | 188 W/m² | - |
| 1778083596 | 11.11° C | 99% | 1011.6 hPa | 0 mm | - | 196 W/m² | - |
| 1778081545 | 10.56° C | 99% | 1011.7 hPa | 0 mm | - | 71 W/m² | - |
| 1778080638 | 10.56° C | 99% | 1011.7 hPa | 0 mm | - | 71 W/m² | - |
| 1778080334 | 10.56° C | 99% | 1011.5 hPa | 0 mm | - | 71 W/m² | - |
| 1778080030 | 10.56° C | 99% | 1011.4 hPa | 0 mm | - | 71 W/m² | - |
| 1778077609 | 10° C | 99% | 1011 hPa | 0 mm | - | 57 W/m² | - |
| 1778077004 | 10° C | 99% | 1011 hPa | 0 mm | - | 57 W/m² | - |
| 1778076702 | 10° C | 99% | 1010.9 hPa | 0 mm | - | 57 W/m² | - |
| 1778076399 | 10° C | 99% | 1010.7 hPa | 0 mm | - | 57 W/m² | - |
| 1778074276 | 10.56° C | 99% | 1010.3 hPa | 0 mm | - | 44 W/m² | - |
| 1778073368 | 11.11° C | 99% | 1010.6 hPa | 0 mm | - | 28 W/m² | - |
| 1778073064 | 11.11° C | 99% | 1010.1 hPa | 0 mm | - | 33 W/m² | - |
| 1778072761 | 10.56° C | 99% | 1010.2 hPa | 0 mm | - | 38 W/m² | - |
| 1778072459 | 11.11° C | 99% | 1009.9 hPa | 0 mm | - | 42 W/m² | - |
| 1778069737 | 11.67° C | 99% | 1009.5 hPa | 3.05 mm | - | 10 W/m² | - |
| 1778069433 | 12.22° C | 99% | 1009.4 hPa | 1.78 mm | - | 6 W/m² | - |
| 1778069131 | 12.22° C | 99% | 1009.8 hPa | 3.56 mm | - | 6 W/m² | - |
| 1778067620 | 12.78° C | 99% | 1008.6 hPa | 1.27 mm | - | 9 W/m² | - |
| 1778067015 | 13.33° C | 99% | 1008.7 hPa | 4.32 mm | - | 6 W/m² | - |
| 1778065501 | 13.89° C | 99% | 1008 hPa | 0 mm | - | 5 W/m² | - |
* Rain latest hour (hover to see other rain measurements)
** Current wind speed in m/s (hover to see current wind gust speed)